Time;durP1;ratioP1;P1;durP2;ratioP2;P2;SDS_P1;SDS_P2;PMS_P1;PMS_P2;Temp;Humidity;BMP_temperature;BMP_pressure;BME280_temperature;BME280_humidity;BME280_pressure;Samples;Min_cycle;Max_cycle;Signal;HPM_P1;HPM_P2
2021/12/14 00:00:30;;;;;;;62.90;37.83;;;8.60;99.90;;;;;;5090410;28;20404;-84
2021/12/14 00:02:59;;;;;;;56.50;35.38;;;8.60;99.90;;;;;;5101996;28;20428;-86
2021/12/14 00:05:27;;;;;;;63.38;36.95;;;8.60;99.90;;;;;;5081749;28;20538;-85
2021/12/14 00:07:56;;;;;;;56.13;35.92;;;8.60;99.90;;;;;;5064380;28;20388;-84
2021/12/14 00:13:08;;;;;;;57.13;36.42;;;8.60;99.90;;;;;;5105343;28;20717;-84
2021/12/14 00:15:34;;;;;;;58.95;37.35;;;8.60;99.90;;;;;;5058015;28;20408;-85
2021/12/14 00:18:04;;;;;;;60.50;39.40;;;8.70;99.90;;;;;;5069504;28;20380;-84
2021/12/14 00:20:38;;;;;;;56.28;36.53;;;8.60;99.90;;;;;;5073722;28;20414;-85
2021/12/14 00:25:40;;;;;;;61.88;37.00;;;8.50;99.90;;;;;;5071240;28;20488;-84
2021/12/14 00:28:12;;;;;;;47.45;32.67;;;8.50;99.90;;;;;;5068554;28;20394;-85
2021/12/14 00:30:41;;;;;;;47.47;32.67;;;8.50;99.90;;;;;;5071441;28;20402;-85
2021/12/14 00:33:12;;;;;;;57.53;37.20;;;8.50;99.90;;;;;;5053394;28;20409;-85
2021/12/14 00:35:39;;;;;;;58.13;37.00;;;8.50;99.90;;;;;;5054691;28;20805;-83
2021/12/14 00:38:06;;;;;;;49.20;34.45;;;8.50;99.90;;;;;;5057037;28;20533;-85
2021/12/14 00:40:37;;;;;;;59.13;36.80;;;8.50;99.90;;;;;;5071598;28;20504;-84
2021/12/14 00:43:03;;;;;;;52.55;33.30;;;8.50;99.90;;;;;;5090012;28;20396;-85
2021/12/14 00:45:31;;;;;;;51.45;34.30;;;8.50;99.90;;;;;;5059017;28;20401;-85
2021/12/14 00:47:58;;;;;;;47.95;34.47;;;8.50;99.90;;;;;;5071438;28;20865;-85
2021/12/14 00:50:25;;;;;;;50.08;35.33;;;8.40;99.90;;;;;;5070704;28;20447;-84
2021/12/14 00:52:51;;;;;;;46.05;33.22;;;8.60;99.90;;;;;;5053203;28;20382;-85
2021/12/14 00:55:25;;;;;;;47.83;32.90;;;8.70;99.90;;;;;;5067085;28;20395;-84
2021/12/14 00:57:51;;;;;;;49.17;32.83;;;8.60;99.90;;;;;;5059796;28;20458;-85
2021/12/14 01:00:21;;;;;;;48.80;32.70;;;8.60;99.90;;;;;;5054334;28;20398;-84
2021/12/14 01:02:46;;;;;;;48.05;32.90;;;8.50;99.90;;;;;;5053213;28;20390;-83
2021/12/14 01:05:18;;;;;;;48.38;32.50;;;8.40;99.90;;;;;;5069161;28;20462;-84
2021/12/14 01:07:44;;;;;;;42.70;30.97;;;8.40;99.90;;;;;;5093371;28;20371;-82
2021/12/14 01:10:22;;;;;;;52.30;34.70;;;8.40;99.90;;;;;;5083530;28;20399;-83
2021/12/14 01:12:54;;;;;;;40.63;29.70;;;8.40;99.90;;;;;;5060611;28;20390;-84
2021/12/14 01:15:29;;;;;;;46.45;31.38;;;8.40;99.90;;;;;;5059179;28;20880;-84
2021/12/14 01:21:39;;;;;;;43.45;29.88;;;8.30;99.90;;;;;;5064465;28;20396;-83
2021/12/14 01:24:21;;;;;;;41.40;29.30;;;8.40;99.90;;;;;;5089485;28;20416;-85
2021/12/14 01:26:47;;;;;;;38.28;28.80;;;8.40;99.90;;;;;;5071179;28;20396;-83
2021/12/14 01:29:16;;;;;;;38.15;28.05;;;8.40;99.90;;;;;;5063976;28;20388;-84
2021/12/14 01:31:43;;;;;;;42.03;30.48;;;8.40;99.90;;;;;;5070372;28;20376;-83
2021/12/14 01:34:13;;;;;;;40.47;29.42;;;8.40;99.90;;;;;;5072068;28;20403;-83
2021/12/14 01:36:44;;;;;;;42.20;30.80;;;8.40;99.90;;;;;;5090435;28;20412;-85
2021/12/14 01:39:34;;;;;;;45.00;31.15;;;8.40;99.90;;;;;;5070832;28;20411;-83
2021/12/14 01:42:08;;;;;;;35.22;26.50;;;8.40;99.90;;;;;;5070436;28;20732;-83
2021/12/14 01:44:47;;;;;;;45.38;29.98;;;8.40;99.90;;;;;;5056643;28;20408;-83
2021/12/14 01:47:19;;;;;;;36.87;26.43;;;8.40;99.90;;;;;;5070502;28;20392;-85
2021/12/14 01:49:46;;;;;;;42.45;29.10;;;8.40;99.90;;;;;;5073451;28;20444;-85
2021/12/14 01:52:20;;;;;;;43.13;29.60;;;8.30;99.90;;;;;;5052121;28;20880;-83
2021/12/14 01:54:49;;;;;;;43.03;30.33;;;8.30;99.90;;;;;;5089640;28;20476;-83
2021/12/14 01:57:18;;;;;;;42.78;31.58;;;8.30;99.90;;;;;;5086909;28;20434;-83
2021/12/14 01:59:46;;;;;;;41.53;30.30;;;8.40;99.90;;;;;;5052511;28;20397;-83
2021/12/14 02:02:24;;;;;;;39.10;29.27;;;8.40;99.90;;;;;;5070446;28;20382;-84
2021/12/14 02:04:53;;;;;;;41.50;30.55;;;8.40;99.90;;;;;;5051526;28;20758;-84
2021/12/14 02:07:20;;;;;;;45.83;30.83;;;8.50;99.90;;;;;;5064112;28;20502;-84
2021/12/14 02:09:53;;;;;;;46.97;32.03;;;8.40;99.90;;;;;;5071583;28;20381;-83
2021/12/14 02:12:22;;;;;;;50.55;31.48;;;8.30;99.90;;;;;;5070965;28;20381;-85
2021/12/14 02:14:49;;;;;;;38.85;27.85;;;8.30;99.90;;;;;;5068296;28;20397;-83
2021/12/14 02:17:19;;;;;;;38.10;27.20;;;8.20;99.90;;;;;;5089798;28;20384;-85
2021/12/14 02:19:46;;;;;;;44.40;30.33;;;8.20;99.90;;;;;;5062813;28;20405;-85
2021/12/14 02:22:12;;;;;;;41.95;29.23;;;8.30;99.90;;;;;;5071246;28;20384;-84
2021/12/14 02:24:39;;;;;;;42.77;28.87;;;8.30;99.90;;;;;;5089355;28;20400;-84
2021/12/14 02:27:06;;;;;;;42.30;29.45;;;8.30;99.90;;;;;;5069872;28;20378;-84
2021/12/14 02:29:35;;;;;;;40.23;27.90;;;8.30;99.90;;;;;;5071369;28;20395;-85
2021/12/14 02:32:08;;;;;;;44.47;29.45;;;8.30;99.90;;;;;;5069509;28;20912;-84
2021/12/14 02:34:43;;;;;;;38.08;28.48;;;8.30;99.90;;;;;;5060203;28;20395;-85
2021/12/14 02:37:09;;;;;;;43.30;29.52;;;8.20;99.90;;;;;;5069702;28;20373;-84
2021/12/14 02:39:47;;;;;;;37.80;26.98;;;8.20;99.90;;;;;;5069042;28;20379;-84
2021/12/14 02:42:21;;;;;;;38.60;26.90;;;8.20;99.90;;;;;;5070083;28;20417;-84
2021/12/14 02:44:50;;;;;;;40.05;27.70;;;8.20;99.90;;;;;;5052982;28;21018;-84
2021/12/14 02:47:18;;;;;;;41.88;28.35;;;8.10;99.90;;;;;;5099474;28;20414;-83
2021/12/14 02:49:45;;;;;;;37.38;25.80;;;8.10;99.90;;;;;;5086357;28;20474;-84
2021/12/14 02:52:27;;;;;;;38.03;26.13;;;8.10;99.90;;;;;;5068958;28;20378;-83
2021/12/14 02:55:18;;;;;;;42.70;28.57;;;8.10;99.90;;;;;;5050851;28;20828;-83
2021/12/14 02:57:49;;;;;;;38.53;27.45;;;8.00;99.90;;;;;;5070692;28;20922;-84
2021/12/14 03:00:23;;;;;;;32.50;24.40;;;8.00;99.90;;;;;;5064440;28;20393;-84
2021/12/14 03:02:49;;;;;;;36.65;25.20;;;8.00;99.90;;;;;;5066545;28;20385;-83
2021/12/14 03:05:22;;;;;;;32.15;22.45;;;8.00;99.90;;;;;;5064383;28;20503;-84
2021/12/14 03:08:06;;;;;;;28.40;21.70;;;8.00;99.90;;;;;;5050770;28;20390;-83
2021/12/14 03:10:55;;;;;;;27.77;20.85;;;8.00;99.90;;;;;;5069470;28;20483;-83
2021/12/14 03:13:22;;;;;;;26.27;19.23;;;8.00;99.90;;;;;;5069245;28;20471;-84
2021/12/14 03:15:54;;;;;;;27.77;20.55;;;8.00;99.90;;;;;;5054663;28;20393;-83
2021/12/14 03:18:26;;;;;;;25.08;19.38;;;8.00;99.90;;;;;;5050772;28;20409;-83
2021/12/14 03:20:59;;;;;;;25.65;19.33;;;8.10;99.90;;;;;;5060589;28;20957;-84
2021/12/14 03:23:35;;;;;;;25.67;19.00;;;8.10;99.90;;;;;;5070461;28;20758;-83
2021/12/14 03:26:05;;;;;;;25.67;19.92;;;8.10;99.90;;;;;;5086843;28;20376;-84
2021/12/14 03:28:31;;;;;;;25.52;19.80;;;8.10;99.90;;;;;;5069722;28;20900;-84
2021/12/14 03:31:06;;;;;;;24.95;19.17;;;8.10;99.90;;;;;;5050229;28;20382;-83
2021/12/14 03:33:39;;;;;;;28.23;19.83;;;8.10;99.90;;;;;;5084058;28;20382;-84
2021/12/14 03:36:09;;;;;;;26.88;18.95;;;8.00;99.90;;;;;;5050376;28;20402;-83
2021/12/14 03:38:51;;;;;;;24.80;18.80;;;8.10;99.90;;;;;;5068846;28;20903;-84
2021/12/14 03:41:31;;;;;;;25.80;18.80;;;8.10;99.90;;;;;;5051173;28;20960;-83
2021/12/14 03:44:02;;;;;;;24.67;19.05;;;8.10;99.90;;;;;;5083003;28;20412;-84
2021/12/14 03:46:31;;;;;;;23.75;17.45;;;8.10;99.90;;;;;;5079546;28;20376;-83
2021/12/14 03:48:58;;;;;;;24.25;18.95;;;8.10;99.90;;;;;;5070581;28;20404;-83
2021/12/14 03:51:25;;;;;;;24.88;18.00;;;8.10;99.90;;;;;;5088127;28;20454;-85
2021/12/14 03:53:53;;;;;;;21.90;17.05;;;8.10;99.90;;;;;;5073443;28;20378;-83
2021/12/14 03:56:20;;;;;;;24.02;17.98;;;8.10;99.90;;;;;;5054303;28;20476;-84
2021/12/14 03:58:48;;;;;;;25.52;18.67;;;8.20;99.90;;;;;;5069730;28;20467;-83
2021/12/14 04:01:17;;;;;;;26.80;19.20;;;8.10;99.90;;;;;;5088094;28;20455;-83
2021/12/14 04:03:46;;;;;;;23.13;17.63;;;8.10;99.90;;;;;;5070215;28;20505;-84
2021/12/14 04:06:12;;;;;;;24.13;18.20;;;8.00;99.90;;;;;;5080964;28;20974;-83
2021/12/14 04:08:38;;;;;;;25.02;18.30;;;8.10;99.90;;;;;;5088797;28;20372;-83
2021/12/14 04:11:06;;;;;;;23.85;17.67;;;8.10;99.90;;;;;;5059270;28;20456;-84
2021/12/14 04:13:35;;;;;;;22.40;17.88;;;8.10;99.90;;;;;;5050239;28;20461;-84
2021/12/14 04:16:02;;;;;;;25.38;19.00;;;8.20;99.90;;;;;;5051481;28;20394;-83
2021/12/14 04:18:29;;;;;;;24.65;17.35;;;8.20;99.90;;;;;;5069286;28;20439;-85
2021/12/14 04:20:56;;;;;;;23.35;17.85;;;8.20;99.90;;;;;;5056460;28;20411;-84
2021/12/14 04:23:29;;;;;;;22.33;16.90;;;8.10;99.90;;;;;;5069606;28;20482;-85
2021/12/14 04:25:57;;;;;;;22.85;17.80;;;8.10;99.90;;;;;;5069279;28;20438;-85
2021/12/14 04:28:26;;;;;;;24.80;17.88;;;8.10;99.90;;;;;;5050190;28;20378;-84
2021/12/14 04:30:52;;;;;;;22.48;17.90;;;8.10;99.90;;;;;;5083433;28;20526;-82
2021/12/14 04:33:27;;;;;;;23.83;18.10;;;8.10;99.90;;;;;;5087616;28;20381;-83
2021/12/14 04:35:53;;;;;;;26.45;18.95;;;8.10;99.90;;;;;;5069157;28;20494;-84
2021/12/14 04:38:24;;;;;;;26.90;19.67;;;8.10;99.90;;;;;;5061067;28;20790;-84
2021/12/14 04:52:22;;;;;;;22.73;18.63;;;8.20;99.90;;;;;;5075221;28;20552;-83
2021/12/14 04:54:54;;;;;;;28.23;20.10;;;8.20;99.90;;;;;;5049727;28;20404;-84
2021/12/14 04:57:22;;;;;;;27.10;19.97;;;8.10;99.90;;;;;;5086139;28;20566;-86
2021/12/14 04:59:50;;;;;;;26.33;19.15;;;8.10;99.90;;;;;;5070824;28;20438;-85
2021/12/14 05:02:30;;;;;;;25.65;18.77;;;8.10;99.90;;;;;;5091603;28;20368;-84
2021/12/14 05:04:57;;;;;;;24.83;18.90;;;8.10;99.90;;;;;;5066332;28;20410;-85
2021/12/14 05:10:03;;;;;;;26.98;19.02;;;8.10;99.90;;;;;;5082563;28;20793;-82
2021/12/14 05:12:33;;;;;;;27.75;20.15;;;8.10;99.90;;;;;;5071830;28;20401;-85
2021/12/14 05:15:03;;;;;;;26.65;19.23;;;8.00;99.90;;;;;;5064768;28;20732;-83
2021/12/14 05:17:32;;;;;;;26.52;18.92;;;8.10;99.90;;;;;;5089106;28;20380;-84
2021/12/14 05:19:58;;;;;;;26.80;19.48;;;8.10;99.90;;;;;;5056266;28;20393;-82
2021/12/14 05:22:31;;;;;;;25.93;18.83;;;8.10;99.90;;;;;;5070585;28;20892;-85
2021/12/14 05:25:02;;;;;;;25.73;19.10;;;8.10;99.90;;;;;;5072184;28;20411;-85
2021/12/14 05:27:35;;;;;;;28.55;20.00;;;8.00;99.90;;;;;;5071610;28;20489;-83
2021/12/14 05:30:07;;;;;;;24.30;18.13;;;8.10;99.90;;;;;;5090947;28;20391;-83
2021/12/14 05:32:32;;;;;;;28.35;19.05;;;8.00;99.90;;;;;;5072283;28;20376;-85
2021/12/14 05:34:58;;;;;;;27.02;18.73;;;8.00;99.90;;;;;;5072806;28;20963;-86
2021/12/14 05:37:28;;;;;;;26.33;19.40;;;8.00;99.90;;;;;;5090238;28;20442;-84
2021/12/14 05:39:59;;;;;;;26.33;18.85;;;8.00;99.90;;;;;;5062233;28;20398;-83
2021/12/14 05:45:16;;;;;;;25.00;18.70;;;8.00;99.90;;;;;;5076673;28;20419;-83
2021/12/14 05:47:46;;;;;;;23.48;17.55;;;7.90;99.90;;;;;;5058980;28;20871;-86
2021/12/14 05:50:19;;;;;;;25.67;18.77;;;7.90;99.90;;;;;;5052501;28;20389;-83
2021/12/14 05:52:45;;;;;;;23.93;17.10;;;8.00;99.90;;;;;;5068700;28;20390;-84
2021/12/14 05:55:11;;;;;;;25.40;18.80;;;8.00;99.90;;;;;;5111279;28;20704;-82
2021/12/14 05:57:38;;;;;;;27.53;19.17;;;8.00;99.90;;;;;;5111091;28;20857;-83
2021/12/14 06:00:07;;;;;;;24.10;18.05;;;8.00;99.90;;;;;;5106953;28;20367;-84
2021/12/14 06:02:37;;;;;;;23.97;17.60;;;8.00;99.90;;;;;;5069552;28;20389;-85
2021/12/14 06:05:04;;;;;;;24.02;18.02;;;8.00;99.90;;;;;;5071033;28;20396;-84
2021/12/14 06:07:29;;;;;;;22.30;17.42;;;8.00;99.90;;;;;;5078286;28;20456;-85
2021/12/14 06:09:56;;;;;;;23.48;17.63;;;7.90;99.90;;;;;;5110336;28;20380;-85
2021/12/14 06:12:31;;;;;;;21.88;17.40;;;7.90;99.90;;;;;;5096034;28;20395;-84
2021/12/14 06:14:59;;;;;;;23.10;16.97;;;7.90;99.90;;;;;;5090299;28;20380;-83
2021/12/14 06:17:31;;;;;;;24.45;18.20;;;7.90;99.90;;;;;;5068563;28;20733;-86
2021/12/14 06:20:00;;;;;;;24.13;18.23;;;7.80;99.90;;;;;;5109980;28;20710;-82
2021/12/14 06:22:26;;;;;;;22.83;17.35;;;7.80;99.90;;;;;;5084706;28;20861;-83
2021/12/14 06:25:00;;;;;;;21.75;16.75;;;7.90;99.90;;;;;;5071796;28;20476;-84
2021/12/14 06:27:30;;;;;;;22.83;17.25;;;7.80;99.90;;;;;;5071696;28;20885;-85
2021/12/14 06:30:03;;;;;;;21.05;16.83;;;7.90;99.90;;;;;;5071647;28;20876;-84
2021/12/14 06:32:44;;;;;;;22.73;16.70;;;7.90;99.90;;;;;;5071674;28;20423;-82
2021/12/14 06:35:24;;;;;;;22.27;16.00;;;7.90;99.90;;;;;;5089287;28;20372;-81
2021/12/14 06:41:04;;;;;;;20.40;16.08;;;7.90;99.90;;;;;;5089596;28;20376;-84
2021/12/14 06:43:38;;;;;;;20.75;15.98;;;7.90;99.90;;;;;;5071453;28;20897;-85
2021/12/14 06:46:08;;;;;;;21.40;15.93;;;7.90;99.90;;;;;;5071796;28;20961;-84
2021/12/14 06:48:51;;;;;;;21.60;15.83;;;8.00;99.90;;;;;;5071436;28;20842;-85
2021/12/14 06:51:31;;;;;;;21.17;17.20;;;8.10;99.90;;;;;;5071036;28;20407;-84
2021/12/14 06:54:00;;;;;;;21.85;17.23;;;8.00;99.90;;;;;;5070778;28;20530;-83
2021/12/14 06:56:31;;;;;;;20.58;16.35;;;7.90;99.90;;;;;;5089667;28;20847;-84
2021/12/14 06:59:02;;;;;;;22.85;16.83;;;7.90;99.90;;;;;;5089617;28;20422;-82
2021/12/14 07:01:40;;;;;;;20.15;15.70;;;7.80;99.90;;;;;;5089483;28;20372;-83
2021/12/14 07:04:10;;;;;;;19.63;15.30;;;7.80;99.90;;;;;;5071276;28;20804;-82
2021/12/14 07:06:41;;;;;;;19.80;15.70;;;7.80;99.90;;;;;;5070945;28;20423;-83
2021/12/14 07:09:24;;;;;;;20.52;15.45;;;7.90;99.90;;;;;;5088616;28;20385;-85
2021/12/14 07:12:21;;;;;;;20.33;16.13;;;7.90;99.90;;;;;;5088861;28;20900;-85
2021/12/14 07:14:50;;;;;;;19.80;16.13;;;7.90;99.90;;;;;;5055206;28;20812;-84
2021/12/14 07:17:21;;;;;;;21.43;16.30;;;7.90;99.90;;;;;;5071077;28;20448;-83
2021/12/14 07:19:58;;;;;;;21.37;16.57;;;8.00;99.90;;;;;;5085316;28;20418;-82
2021/12/14 07:22:33;;;;;;;22.00;16.58;;;7.90;99.90;;;;;;5091849;28;20442;-84
2021/12/14 07:25:04;;;;;;;20.48;16.35;;;7.80;99.90;;;;;;5088885;28;20434;-84
2021/12/14 07:27:51;;;;;;;20.13;15.85;;;7.90;99.90;;;;;;5071175;28;20431;-83
2021/12/14 07:30:32;;;;;;;23.70;16.95;;;8.00;99.90;;;;;;5088431;28;20416;-85
2021/12/14 07:33:15;;;;;;;20.73;15.68;;;8.00;99.90;;;;;;5070542;28;20381;-83
2021/12/14 07:36:02;;;;;;;21.40;15.93;;;8.00;99.90;;;;;;5089106;28;20930;-85
2021/12/14 07:38:30;;;;;;;20.15;16.48;;;8.00;99.90;;;;;;5060304;28;20886;-85
2021/12/14 07:40:59;;;;;;;18.70;15.65;;;8.00;99.90;;;;;;5076053;28;20891;-84
2021/12/14 07:43:27;;;;;;;17.75;14.57;;;7.90;99.90;;;;;;5109170;28;20442;-83
2021/12/14 07:45:54;;;;;;;18.50;14.48;;;7.90;99.90;;;;;;5090810;28;20702;-83
2021/12/14 07:48:23;;;;;;;18.88;15.25;;;8.00;99.90;;;;;;5108471;28;20737;-85
2021/12/14 07:50:54;;;;;;;19.48;15.95;;;8.00;99.90;;;;;;5068415;28;20398;-85
2021/12/14 07:53:31;;;;;;;18.92;15.63;;;8.00;99.90;;;;;;5096986;28;20485;-83
2021/12/14 07:55:57;;;;;;;20.10;15.50;;;8.00;99.90;;;;;;5069627;28;20386;-83
2021/12/14 07:58:33;;;;;;;19.38;15.45;;;8.00;99.90;;;;;;5068494;28;20424;-83
2021/12/14 08:00:59;;;;;;;21.27;15.80;;;8.00;99.90;;;;;;5069516;28;20386;-84
2021/12/14 08:03:32;;;;;;;18.02;15.35;;;8.00;99.90;;;;;;5052129;28;20706;-85
2021/12/14 08:05:58;;;;;;;20.48;15.60;;;8.10;99.90;;;;;;5079598;28;21464;-84
2021/12/14 08:08:41;;;;;;;20.17;15.52;;;8.10;99.90;;;;;;5088260;28;20384;-82
2021/12/14 08:14:12;;;;;;;18.90;15.20;;;8.00;99.90;;;;;;5088825;28;20877;-83
2021/12/14 08:16:46;;;;;;;16.60;14.77;;;8.00;99.90;;;;;;5088375;28;21186;-85
2021/12/14 08:19:33;;;;;;;18.10;15.98;;;8.00;99.90;;;;;;5054901;28;20390;-84
2021/12/14 08:22:04;;;;;;;19.50;16.17;;;8.00;99.90;;;;;;5052658;28;20400;-84
2021/12/14 08:24:30;;;;;;;18.60;15.90;;;8.00;99.90;;;;;;5058073;28;20417;-84
2021/12/14 08:26:59;;;;;;;19.88;16.08;;;8.00;99.90;;;;;;5068204;28;20374;-84
2021/12/14 08:29:30;;;;;;;20.08;15.88;;;8.00;99.90;;;;;;5050712;28;20390;-83
2021/12/14 08:32:11;;;;;;;20.00;16.00;;;8.00;99.90;;;;;;5051070;28;20398;-86
2021/12/14 08:34:46;;;;;;;19.73;16.03;;;8.00;99.90;;;;;;5071925;28;20390;-86
2021/12/14 08:37:14;;;;;;;17.15;15.18;;;7.90;99.90;;;;;;5054506;28;20374;-85
2021/12/14 08:39:50;;;;;;;19.88;15.85;;;7.90;99.90;;;;;;5053986;28;20397;-83
2021/12/14 08:42:25;;;;;;;19.27;15.90;;;7.90;99.90;;;;;;5072182;28;20370;-84
2021/12/14 08:44:56;;;;;;;19.35;15.82;;;8.00;99.90;;;;;;5066369;28;20408;-83
2021/12/14 08:47:28;;;;;;;18.98;15.77;;;8.00;99.90;;;;;;5088036;28;20898;-84
2021/12/14 08:49:54;;;;;;;19.13;15.73;;;8.00;99.90;;;;;;5071830;28;20408;-83
2021/12/14 08:52:21;;;;;;;18.30;14.83;;;8.00;99.90;;;;;;5072894;28;20409;-82
2021/12/14 08:54:47;;;;;;;17.42;15.48;;;8.20;99.90;;;;;;5053453;28;20903;-84
2021/12/14 08:57:18;;;;;;;19.45;15.48;;;8.10;99.90;;;;;;5071647;28;20378;-83
2021/12/14 08:59:48;;;;;;;19.40;15.85;;;8.30;99.90;;;;;;5054476;28;20942;-83
2021/12/14 09:02:16;;;;;;;17.08;14.07;;;8.20;99.90;;;;;;5058278;28;20894;-81
2021/12/14 09:05:08;;;;;;;16.27;14.43;;;8.40;99.90;;;;;;5073388;28;20404;-81
2021/12/14 09:07:34;;;;;;;17.42;14.85;;;8.40;99.90;;;;;;5073700;28;20469;-83
2021/12/14 09:10:04;;;;;;;17.48;14.48;;;8.40;99.90;;;;;;5073499;28;20392;-82
2021/12/14 09:12:35;;;;;;;16.20;14.45;;;8.40;99.90;;;;;;5091995;28;20907;-82
2021/12/14 09:15:12;;;;;;;17.77;14.38;;;8.50;99.90;;;;;;5072987;28;20376;-82
2021/12/14 09:17:38;;;;;;;15.25;13.70;;;8.50;99.90;;;;;;5054020;28;20771;-81
2021/12/14 09:20:13;;;;;;;16.00;13.90;;;8.60;99.90;;;;;;5071511;28;20370;-85
2021/12/14 09:22:42;;;;;;;18.20;14.23;;;8.60;99.90;;;;;;5070888;28;20394;-81
2021/12/14 09:25:13;;;;;;;16.80;14.02;;;8.50;99.90;;;;;;5052904;28;20452;-82
2021/12/14 09:27:39;;;;;;;15.80;14.10;;;8.40;99.90;;;;;;5070985;28;20385;-83
2021/12/14 09:30:09;;;;;;;15.48;13.70;;;8.40;99.90;;;;;;5078910;28;20380;-83
2021/12/14 09:32:36;;;;;;;17.07;13.27;;;8.40;99.90;;;;;;5068555;28;20384;-84
2021/12/14 09:35:06;;;;;;;16.98;14.40;;;8.40;99.90;;;;;;5073213;28;20877;-82
2021/12/14 09:37:32;;;;;;;15.13;13.53;;;8.40;99.90;;;;;;5085521;28;20904;-84
2021/12/14 09:40:08;;;;;;;19.27;15.65;;;8.40;99.90;;;;;;5052679;28;20398;-81
2021/12/14 09:42:35;;;;;;;18.63;15.70;;;8.30;99.90;;;;;;5068689;28;20375;-81
2021/12/14 09:45:13;;;;;;;16.20;14.60;;;8.30;99.90;;;;;;5095448;28;20401;-82
2021/12/14 09:47:39;;;;;;;17.20;15.32;;;8.40;99.90;;;;;;5089026;28;20466;-84
2021/12/14 09:50:10;;;;;;;16.13;14.23;;;8.40;99.90;;;;;;5100337;28;20371;-82
2021/12/14 09:52:39;;;;;;;17.55;14.70;;;8.50;99.90;;;;;;5092946;28;20390;-84
2021/12/14 09:55:09;;;;;;;16.92;14.55;;;8.60;99.90;;;;;;5093317;28;20384;-83
2021/12/14 09:57:40;;;;;;;19.00;15.38;;;8.50;99.90;;;;;;5090597;28;20379;-83
2021/12/14 10:00:28;;;;;;;16.60;14.55;;;8.60;99.90;;;;;;5071969;28;20432;-82
2021/12/14 10:02:58;;;;;;;17.40;15.50;;;8.70;99.90;;;;;;5096964;28;20373;-83
2021/12/14 10:05:30;;;;;;;16.65;14.90;;;8.80;99.90;;;;;;5085079;28;20397;-84
2021/12/14 10:07:58;;;;;;;19.50;15.90;;;8.80;99.90;;;;;;5072189;28;20822;-81
2021/12/14 10:10:24;;;;;;;16.45;14.55;;;8.90;99.90;;;;;;5090287;28;20379;-85
2021/12/14 10:12:55;;;;;;;17.05;15.15;;;9.00;99.90;;;;;;5090017;28;20765;-82
2021/12/14 10:15:54;;;;;;;17.23;15.10;;;9.00;99.90;;;;;;5071917;28;20377;-84
2021/12/14 10:18:25;;;;;;;17.20;15.02;;;9.00;99.90;;;;;;5045814;28;20965;-84
2021/12/14 10:21:01;;;;;;;17.33;15.52;;;9.00;99.90;;;;;;5071691;28;20471;-81
2021/12/14 10:23:28;;;;;;;16.90;14.88;;;9.10;99.90;;;;;;5068859;28;20463;-81
2021/12/14 10:25:55;;;;;;;16.80;15.10;;;9.20;99.90;;;;;;5071617;28;20815;-82
2021/12/14 10:28:23;;;;;;;16.13;14.43;;;9.30;99.90;;;;;;5071801;28;20418;-83
2021/12/14 10:30:57;;;;;;;17.40;14.67;;;9.30;99.90;;;;;;5089503;28;20446;-84
2021/12/14 10:33:27;;;;;;;15.65;13.88;;;9.30;99.90;;;;;;5071812;28;20885;-81
2021/12/14 10:36:00;;;;;;;16.08;14.38;;;9.30;99.90;;;;;;5055011;28;20389;-84
2021/12/14 10:38:35;;;;;;;14.90;13.30;;;9.30;99.90;;;;;;5072293;28;20894;-83
2021/12/14 10:43:55;;;;;;;14.35;12.95;;;9.20;99.90;;;;;;5089784;28;20511;-82
2021/12/14 10:46:31;;;;;;;16.60;14.07;;;9.30;99.90;;;;;;5089800;28;20446;-84
2021/12/14 10:48:57;;;;;;;15.85;14.07;;;9.10;99.90;;;;;;5070290;28;20384;-83
2021/12/14 10:51:28;;;;;;;16.33;14.20;;;9.10;99.90;;;;;;5066168;28;20408;-83
2021/12/14 10:53:56;;;;;;;15.40;13.68;;;9.10;99.90;;;;;;5089162;28;20809;-84
2021/12/14 10:56:30;;;;;;;15.52;13.55;;;9.20;99.90;;;;;;5069432;28;20467;-85
2021/12/14 10:58:59;;;;;;;14.88;13.38;;;9.20;99.90;;;;;;5088956;28;20742;-81
2021/12/14 11:01:31;;;;;;;14.95;13.38;;;9.30;99.90;;;;;;5089797;28;20451;-81
2021/12/14 11:04:13;;;;;;;14.55;13.05;;;9.20;99.90;;;;;;5071550;28;20811;-84
2021/12/14 11:06:45;;;;;;;14.77;13.15;;;9.20;99.90;;;;;;5071633;28;20376;-85
2021/12/14 11:11:56;;;;;;;14.75;13.18;;;9.30;99.90;;;;;;5089210;28;20373;-85
2021/12/14 11:14:29;;;;;;;16.48;13.60;;;9.30;99.90;;;;;;5071574;28;20508;-82
2021/12/14 11:19:49;;;;;;;15.18;13.63;;;9.50;99.90;;;;;;5089383;28;20413;-83
2021/12/14 11:22:25;;;;;;;14.70;13.07;;;9.60;99.90;;;;;;5089685;28;20869;-82
2021/12/14 11:24:57;;;;;;;14.55;13.05;;;9.50;99.90;;;;;;5070991;28;20769;-83
2021/12/14 11:27:32;;;;;;;15.23;13.73;;;9.40;99.90;;;;;;5088877;28;20822;-84
2021/12/14 11:30:28;;;;;;;14.68;13.18;;;9.40;99.90;;;;;;5071263;28;20452;-82
2021/12/14 11:33:16;;;;;;;14.85;13.20;;;9.40;99.90;;;;;;5070854;28;20454;-82
2021/12/14 11:36:19;;;;;;;15.25;13.65;;;9.40;99.90;;;;;;5070776;28;20453;-82
2021/12/14 11:38:53;;;;;;;15.55;13.73;;;9.50;99.90;;;;;;5089466;28;20376;-84
2021/12/14 11:41:19;;;;;;;16.05;14.35;;;9.50;99.90;;;;;;5088829;28;20400;-85
2021/12/14 11:43:55;;;;;;;14.85;13.35;;;9.50;99.90;;;;;;5071173;28;20834;-81
2021/12/14 11:46:21;;;;;;;15.60;13.95;;;9.50;99.90;;;;;;5068049;28;20391;-85
2021/12/14 11:48:47;;;;;;;15.05;13.55;;;9.60;99.90;;;;;;5070357;28;20845;-85
2021/12/14 11:51:13;;;;;;;15.30;13.70;;;9.60;99.90;;;;;;5088766;28;20368;-85
2021/12/14 11:53:46;;;;;;;15.07;13.57;;;9.70;99.90;;;;;;5088865;28;20376;-82
2021/12/14 11:56:15;;;;;;;15.23;13.43;;;9.80;99.90;;;;;;5088393;28;20478;-82
2021/12/14 11:58:51;;;;;;;14.52;13.07;;;9.80;99.90;;;;;;5088886;28;20384;-81
2021/12/14 12:01:25;;;;;;;16.70;14.90;;;9.80;99.90;;;;;;5070432;28;20468;-82
2021/12/14 12:04:01;;;;;;;15.13;13.53;;;9.80;99.90;;;;;;5089057;28;20380;-83
2021/12/14 12:09:32;;;;;;;17.60;14.80;;;9.90;99.90;;;;;;5075622;28;20384;-85
2021/12/14 12:12:07;;;;;;;15.77;14.05;;;9.90;99.90;;;;;;5073371;28;20483;-83
2021/12/14 12:14:50;;;;;;;18.15;15.02;;;9.80;99.90;;;;;;5074505;28;20478;-82
2021/12/14 12:17:31;;;;;;;17.20;14.67;;;9.80;99.90;;;;;;5074582;28;20925;-83
2021/12/14 12:20:13;;;;;;;15.60;14.00;;;9.70;99.90;;;;;;5074911;28;20376;-82
2021/12/14 12:22:44;;;;;;;17.08;15.23;;;9.70;99.90;;;;;;5073720;28;20394;-83
2021/12/14 12:25:17;;;;;;;15.45;13.85;;;9.70;99.90;;;;;;5073777;28;20411;-81
2021/12/14 12:28:00;;;;;;;15.60;13.90;;;9.80;99.90;;;;;;5074505;28;20380;-83
2021/12/14 12:30:41;;;;;;;16.02;14.43;;;9.80;99.90;;;;;;5073512;28;20746;-81
2021/12/14 12:33:09;;;;;;;18.08;14.98;;;9.80;99.90;;;;;;5074386;28;20747;-82
2021/12/14 12:35:41;;;;;;;17.35;14.73;;;9.80;99.90;;;;;;5074206;28;20781;-83
2021/12/14 12:38:48;;;;;;;17.00;15.20;;;9.80;99.90;;;;;;5074278;28;20372;-84
2021/12/14 12:41:25;;;;;;;18.52;16.50;;;9.60;99.90;;;;;;5043905;28;20445;-83
2021/12/14 12:43:53;;;;;;;18.15;16.25;;;9.50;99.90;;;;;;5074108;28;20513;-85
2021/12/14 12:46:18;;;;;;;20.75;16.27;;;9.40;99.90;;;;;;5092106;28;20400;-84
2021/12/14 12:48:59;;;;;;;21.80;18.38;;;9.30;99.90;;;;;;5092314;28;20796;-84
2021/12/14 12:51:40;;;;;;;20.50;17.13;;;9.20;99.90;;;;;;5091832;28;20431;-85
2021/12/14 12:54:16;;;;;;;20.40;18.13;;;9.20;99.90;;;;;;5092448;28;20376;-85
2021/12/14 12:56:43;;;;;;;21.42;17.77;;;9.20;99.90;;;;;;5073085;28;20400;-84
2021/12/14 12:59:11;;;;;;;19.08;16.95;;;9.10;99.90;;;;;;5091966;28;20396;-82
2021/12/14 13:01:38;;;;;;;21.10;18.77;;;9.10;99.90;;;;;;5073155;28;20839;-82
2021/12/14 13:04:05;;;;;;;20.52;17.42;;;9.20;99.90;;;;;;5074605;28;20426;-83
2021/12/14 13:06:31;;;;;;;20.83;18.02;;;9.20;99.90;;;;;;5060427;28;20430;-85
2021/12/14 13:08:58;;;;;;;24.10;19.50;;;9.20;99.90;;;;;;5088526;28;20415;-85
2021/12/14 13:11:29;;;;;;;22.23;18.48;;;9.10;99.90;;;;;;5070254;28;20425;-84
2021/12/14 13:14:03;;;;;;;21.55;18.73;;;9.00;99.90;;;;;;5070632;28;20381;-84
2021/12/14 13:16:43;;;;;;;23.80;18.88;;;9.00;99.90;;;;;;5080405;28;20962;-87
2021/12/14 13:19:16;;;;;;;23.20;18.60;;;9.00;99.90;;;;;;5070088;28;20391;-83
2021/12/14 13:21:52;;;;;;;26.13;19.38;;;9.00;99.90;;;;;;5087315;28;20424;-85
2021/12/14 13:24:38;;;;;;;26.95;20.40;;;9.00;99.90;;;;;;5063607;28;20411;-85
2021/12/14 13:27:16;;;;;;;28.33;20.48;;;8.90;99.90;;;;;;5087601;28;20372;-83
2021/12/14 13:29:52;;;;;;;23.92;20.27;;;8.90;99.90;;;;;;5070335;28;21123;-84
2021/12/14 13:32:30;;;;;;;26.45;20.75;;;8.90;99.90;;;;;;5068983;28;20467;-83
2021/12/14 13:35:05;;;;;;;25.20;20.33;;;8.90;99.90;;;;;;5085700;28;20368;-82
2021/12/14 13:37:35;;;;;;;29.05;21.85;;;9.00;99.90;;;;;;5088321;28;20372;-81
2021/12/14 13:40:05;;;;;;;28.02;22.13;;;8.90;99.90;;;;;;5088278;28;20459;-82
2021/12/14 13:43:08;;;;;;;28.58;22.08;;;8.80;99.90;;;;;;5068049;28;20388;-82